createdAt,value
2023-01-17T00:02:26.952Z,3.85
2023-01-17T00:05:12.969Z,3.95
2023-01-17T00:07:59.149Z,3.35
2023-01-17T00:10:28.612Z,3.68
2023-01-17T00:13:02.594Z,3.25
2023-01-17T00:15:31.616Z,3.28
2023-01-17T00:17:59.980Z,3.38
2023-01-17T00:20:49.924Z,3.43
2023-01-17T00:23:43.264Z,3.48
2023-01-17T00:26:18.037Z,3.62
2023-01-17T00:28:46.245Z,3.93
2023-01-17T00:31:16.437Z,3.96
2023-01-17T00:33:44.271Z,3.72
2023-01-17T00:36:12.273Z,3.94
2023-01-17T00:38:40.662Z,4.01
2023-01-17T00:41:11.793Z,3.77
2023-01-17T00:43:58.970Z,3.78
2023-01-17T00:46:45.759Z,3.73
2023-01-17T00:49:31.846Z,4.04
2023-01-17T00:52:19.225Z,4.01
2023-01-17T00:55:05.319Z,3.66
2023-01-17T00:57:51.354Z,3.77
2023-01-17T01:00:38.120Z,3.57
2023-01-17T01:03:29.759Z,3.77
2023-01-17T01:06:15.873Z,3.81
2023-01-17T01:09:02.081Z,3.88
2023-01-17T01:11:48.180Z,3.86
2023-01-17T01:14:53.089Z,4.15
2023-01-17T01:17:38.976Z,3.88
2023-01-17T01:20:43.549Z,3.84
2023-01-17T01:23:29.744Z,3.56
2023-01-17T01:26:15.881Z,4.10
2023-01-17T01:29:01.967Z,4.37
2023-01-17T01:31:48.281Z,5.00
2023-01-17T01:34:16.039Z,5.03
2023-01-17T01:36:43.727Z,4.86
2023-01-17T01:39:11.408Z,4.80
2023-01-17T01:41:38.961Z,4.74
2023-01-17T01:44:48.902Z,4.50
2023-01-17T01:47:33.906Z,4.43
2023-01-17T01:50:07.188Z,4.35
2023-01-17T01:52:39.226Z,4.54
2023-01-17T01:55:23.921Z,4.57
2023-01-17T01:57:57.357Z,3.98
2023-01-17T02:00:30.660Z,4.81
2023-01-17T02:03:02.463Z,4.88
2023-01-17T02:05:31.435Z,4.46
2023-01-17T02:08:06.054Z,4.39
2023-01-17T02:10:36.080Z,3.98
2023-01-17T02:13:04.704Z,4.05
2023-01-17T02:16:04.236Z,3.38
2023-01-17T02:18:48.185Z,4.02
2023-01-17T02:21:25.144Z,4.06
2023-01-17T02:24:38.191Z,4.30
2023-01-17T02:27:44.573Z,3.51
2023-01-17T02:30:36.205Z,3.75
2023-01-17T02:33:51.137Z,3.97
2023-01-17T02:36:49.751Z,3.27
2023-01-17T02:39:30.049Z,3.10
2023-01-17T02:42:05.106Z,3.12
2023-01-17T02:44:41.770Z,3.25
2023-01-17T02:47:30.290Z,3.08
2023-01-17T02:50:12.239Z,2.80
2023-01-17T02:53:29.707Z,3.47
2023-01-17T02:56:24.101Z,3.20
2023-01-17T02:59:03.649Z,3.21
2023-01-17T03:01:57.021Z,2.42
2023-01-17T03:04:38.861Z,2.48
2023-01-17T03:07:16.303Z,2.65
2023-01-17T03:09:46.528Z,2.46
2023-01-17T03:12:14.561Z,2.02
2023-01-17T03:14:42.215Z,2.35
2023-01-17T03:17:09.823Z,2.25
2023-01-17T03:19:37.421Z,2.41
2023-01-17T03:22:05.003Z,2.92
2023-01-17T03:24:32.573Z,3.14
2023-01-17T03:27:00.281Z,3.60
2023-01-17T03:29:27.851Z,3.18
2023-01-17T03:31:55.487Z,2.68
2023-01-17T03:34:23.381Z,3.22
2023-01-17T03:36:50.989Z,2.92
2023-01-17T03:39:18.515Z,3.48
2023-01-17T03:41:46.160Z,3.33
2023-01-17T03:44:13.722Z,2.65
2023-01-17T03:46:41.325Z,2.63
2023-01-17T03:49:09.716Z,2.92
2023-01-17T03:51:37.323Z,2.92
2023-01-17T03:54:05.379Z,2.99
2023-01-17T03:56:33.017Z,2.65
2023-01-17T03:59:00.675Z,3.15
2023-01-17T04:01:28.384Z,2.70
2023-01-17T04:03:56.065Z,2.25
2023-01-17T04:06:23.695Z,2.43
2023-01-17T04:08:51.257Z,2.67
2023-01-17T04:11:18.940Z,2.58
2023-01-17T04:13:46.698Z,2.33
2023-01-17T04:16:17.623Z,1.91
2023-01-17T04:18:45.393Z,2.12
2023-01-17T04:21:12.941Z,2.06
2023-01-17T04:23:40.551Z,1.53
2023-01-17T04:26:09.647Z,1.91
2023-01-17T04:28:37.214Z,2.09
2023-01-17T04:31:04.811Z,1.97
2023-01-17T04:33:32.492Z,1.43
2023-01-17T04:36:00.048Z,1.72
2023-01-17T04:38:27.620Z,1.64
2023-01-17T04:40:55.160Z,2.26
2023-01-17T04:43:22.709Z,1.62
2023-01-17T04:45:56.343Z,1.75
2023-01-17T04:48:24.490Z,1.91
2023-01-17T04:50:52.075Z,1.85
2023-01-17T04:53:19.631Z,1.47
2023-01-17T04:55:47.260Z,1.24
2023-01-17T04:58:14.795Z,1.09
2023-01-17T05:00:42.451Z,0.98
2023-01-17T05:03:10.364Z,0.57
2023-01-17T05:05:37.877Z,0.71
2023-01-17T05:08:05.564Z,0.60
2023-01-17T05:10:33.099Z,0.66
2023-01-17T05:13:00.758Z,0.94
2023-01-17T05:15:29.442Z,0.56
2023-01-17T05:17:57.293Z,0.45
2023-01-17T05:20:27.015Z,0.44
2023-01-17T05:22:56.911Z,0.24
2023-01-17T05:25:27.708Z,0.26
2023-01-17T05:27:55.825Z,0.30
2023-01-17T05:30:23.457Z,0.24
2023-01-17T05:32:53.450Z,0.32
2023-01-17T05:35:25.607Z,0.25
2023-01-17T05:37:53.260Z,0.56
2023-01-17T05:40:25.912Z,0.52
2023-01-17T05:42:57.067Z,0.82
2023-01-17T05:45:28.519Z,1.07
2023-01-17T05:47:58.327Z,0.91
2023-01-17T05:50:30.450Z,1.05
2023-01-17T05:53:05.978Z,0.77
2023-01-17T05:55:34.323Z,1.54
2023-01-17T05:58:03.204Z,1.70
2023-01-17T06:00:31.797Z,2.02
2023-01-17T06:03:00.848Z,1.63
2023-01-17T06:05:29.416Z,1.74
2023-01-17T06:07:57.814Z,1.71
2023-01-17T06:10:26.970Z,2.25
2023-01-17T06:13:10.374Z,2.75
2023-01-17T06:15:39.119Z,2.79
2023-01-17T06:18:09.356Z,2.40
2023-01-17T06:20:38.039Z,1.93
2023-01-17T06:23:09.652Z,2.30
2023-01-17T06:25:45.857Z,2.01
2023-01-17T06:28:16.812Z,1.84
2023-01-17T06:30:45.297Z,2.45
2023-01-17T06:33:13.750Z,1.98
2023-01-17T06:35:51.677Z,2.67
2023-01-17T06:38:19.657Z,3.12
2023-01-17T06:40:47.480Z,2.47
2023-01-17T06:43:15.238Z,2.18
2023-01-17T06:45:42.823Z,2.62
2023-01-17T06:48:10.470Z,2.10
2023-01-17T06:50:38.355Z,2.03
2023-01-17T06:53:07.206Z,2.46
2023-01-17T06:55:37.254Z,2.42
2023-01-17T06:58:04.985Z,2.91
2023-01-17T07:00:35.084Z,2.96
2023-01-17T07:03:03.334Z,2.74
2023-01-17T07:05:31.215Z,2.74
2023-01-17T07:07:58.840Z,2.20
2023-01-17T07:10:26.383Z,1.65
2023-01-17T07:13:00.636Z,2.22
2023-01-17T07:15:28.426Z,1.70
2023-01-17T07:17:55.941Z,1.91
2023-01-17T07:20:23.583Z,1.77
2023-01-17T07:22:51.117Z,1.25
2023-01-17T07:25:20.062Z,1.65
2023-01-17T07:27:47.819Z,1.77
2023-01-17T07:30:16.066Z,2.01
2023-01-17T07:32:43.654Z,1.44
2023-01-17T07:35:11.292Z,1.07
2023-01-17T07:37:39.095Z,1.07
2023-01-17T07:40:07.372Z,1.62
2023-01-17T07:42:35.003Z,1.75
2023-01-17T07:45:02.572Z,1.66
2023-01-17T07:47:30.124Z,1.61
2023-01-17T07:49:57.768Z,1.21
2023-01-17T07:52:25.318Z,0.86
2023-01-17T07:54:52.954Z,1.15
2023-01-17T07:57:20.817Z,1.02
2023-01-17T07:59:50.873Z,1.48
2023-01-17T08:02:22.230Z,1.69
2023-01-17T08:04:50.122Z,1.74
2023-01-17T08:07:17.866Z,1.55
2023-01-17T08:09:49.719Z,1.51
2023-01-17T08:12:17.819Z,1.20
2023-01-17T08:14:45.430Z,0.99
2023-01-17T08:17:16.749Z,1.67
2023-01-17T08:19:44.917Z,1.80
2023-01-17T08:22:12.567Z,1.43
2023-01-17T08:24:40.212Z,1.21
2023-01-17T08:27:08.971Z,1.56
2023-01-17T08:29:36.979Z,1.49
2023-01-17T08:32:04.744Z,0.89
2023-01-17T08:34:33.493Z,0.72
2023-01-17T08:37:01.078Z,0.25
2023-01-17T08:39:28.767Z,-0.01
2023-01-17T08:41:57.387Z,-0.29
2023-01-17T08:44:25.080Z,-0.46
2023-01-17T08:46:52.839Z,-0.22
2023-01-17T08:49:20.619Z,-0.37
2023-01-17T08:51:48.200Z,-0.42
2023-01-17T08:54:16.596Z,-0.25
2023-01-17T08:56:44.204Z,-0.74
2023-01-17T08:59:12.116Z,-0.67
2023-01-17T09:01:45.882Z,-0.55
2023-01-17T09:04:17.465Z,0.00
2023-01-17T09:06:47.282Z,0.27
2023-01-17T09:09:17.056Z,0.25
2023-01-17T09:11:44.688Z,0.04
2023-01-17T09:14:13.607Z,-0.09
2023-01-17T09:16:41.356Z,-0.52
2023-01-17T09:19:09.344Z,-0.60
2023-01-17T09:21:36.988Z,-0.40
2023-01-17T09:24:04.573Z,-0.32
2023-01-17T09:26:32.780Z,-0.41
2023-01-17T09:29:00.435Z,0.15
2023-01-17T09:31:28.523Z,-0.07
2023-01-17T09:33:57.794Z,-0.07
2023-01-17T09:36:33.691Z,0.37
2023-01-17T09:39:02.912Z,0.47
2023-01-17T09:42:07.860Z,0.74
2023-01-17T09:44:46.797Z,0.14
2023-01-17T09:47:33.082Z,-0.08
2023-01-17T09:50:25.242Z,-0.84
2023-01-17T09:53:02.486Z,-0.89
2023-01-17T09:55:58.037Z,-0.90
2023-01-17T09:59:01.436Z,-1.07
2023-01-17T10:01:41.096Z,-1.06
2023-01-17T10:04:41.252Z,-0.46
2023-01-17T10:07:51.552Z,-0.73
2023-01-17T10:10:26.990Z,-0.38
2023-01-17T10:13:34.867Z,-0.84
2023-01-17T10:16:31.636Z,-1.21
2023-01-17T10:19:35.547Z,-1.02
2023-01-17T10:22:49.390Z,-1.01
2023-01-17T10:25:52.290Z,-0.66
2023-01-17T10:28:41.834Z,-0.91
2023-01-17T10:31:18.562Z,-0.80
2023-01-17T10:34:03.710Z,-0.32
2023-01-17T10:36:39.512Z,-0.59
2023-01-17T10:39:25.308Z,-0.55
2023-01-17T10:42:01.862Z,-0.50
2023-01-17T10:44:43.079Z,-0.33
2023-01-17T10:47:10.521Z,-0.22
2023-01-17T10:49:46.321Z,-0.51
2023-01-17T10:53:21.563Z,-0.32
2023-01-17T10:55:56.007Z,-0.01
2023-01-17T10:58:25.210Z,-0.14
2023-01-17T11:01:02.065Z,0.25
2023-01-17T11:03:31.003Z,0.62
2023-01-17T11:06:23.607Z,0.16
2023-01-17T11:08:52.556Z,0.60
2023-01-17T11:11:25.213Z,1.19
2023-01-17T11:13:55.128Z,1.03
2023-01-17T11:16:28.665Z,0.48
2023-01-17T11:19:30.366Z,0.50
2023-01-17T11:22:06.594Z,0.33
2023-01-17T11:24:54.989Z,0.17
2023-01-17T11:27:34.617Z,-0.10
2023-01-17T11:30:18.233Z,0.16
2023-01-17T11:33:06.201Z,0.79
2023-01-17T11:35:37.199Z,0.65
2023-01-17T11:38:06.410Z,0.89
2023-01-17T11:40:42.837Z,1.08
2023-01-17T11:43:18.518Z,1.45
2023-01-17T11:46:14.127Z,2.17
2023-01-17T11:48:41.956Z,1.93
2023-01-17T11:51:26.977Z,1.81
2023-01-17T11:54:05.753Z,2.75
2023-01-17T11:56:36.735Z,1.82
2023-01-17T11:59:31.596Z,1.84
2023-01-17T12:02:34.002Z,1.72
2023-01-17T12:05:40.315Z,1.10
2023-01-17T12:08:51.168Z,1.08
2023-01-17T12:12:20.587Z,0.79
2023-01-17T12:15:03.572Z,1.28
2023-01-17T12:18:06.031Z,0.91
2023-01-17T12:21:17.393Z,1.26
2023-01-17T12:24:03.208Z,0.86
2023-01-17T12:26:50.200Z,1.18
2023-01-17T12:29:38.974Z,2.27
2023-01-17T12:32:12.613Z,2.00
2023-01-17T12:35:06.074Z,1.22
2023-01-17T12:37:40.940Z,1.22
2023-01-17T12:40:36.568Z,1.08
2023-01-17T12:43:27.332Z,1.37
2023-01-17T12:45:55.089Z,1.66
2023-01-17T12:48:27.586Z,0.93
2023-01-17T12:51:18.426Z,0.50
2023-01-17T12:54:02.294Z,0.62
2023-01-17T12:56:43.730Z,1.12
2023-01-17T12:59:29.809Z,1.07
2023-01-17T13:02:01.427Z,0.69
2023-01-17T13:04:58.475Z,0.51
2023-01-17T13:07:45.865Z,0.75
2023-01-17T13:10:39.704Z,1.27
2023-01-17T13:13:28.230Z,2.09
2023-01-17T13:16:13.388Z,1.98
2023-01-17T13:18:47.462Z,1.60
2023-01-17T13:21:31.229Z,1.60
2023-01-17T13:24:07.541Z,1.21
2023-01-17T13:27:18.680Z,1.04
2023-01-17T13:30:11.143Z,0.96
2023-01-17T13:33:29.746Z,1.90
2023-01-17T13:36:12.460Z,1.97
2023-01-17T13:39:00.109Z,2.44
2023-01-17T13:42:02.933Z,2.23
2023-01-17T13:44:31.888Z,2.38
2023-01-17T13:47:17.775Z,2.14
2023-01-17T13:49:51.417Z,3.08
2023-01-17T13:52:18.939Z,3.23
2023-01-17T13:54:53.878Z,2.83
2023-01-17T13:57:34.685Z,3.11
2023-01-17T14:00:21.315Z,2.26
2023-01-17T14:02:51.539Z,1.86
2023-01-17T14:05:42.005Z,2.25
2023-01-17T14:08:17.937Z,1.92
2023-01-17T14:10:53.630Z,2.01
2023-01-17T14:13:40.067Z,1.83
2023-01-17T14:16:22.657Z,1.74
2023-01-17T14:18:50.537Z,2.36
2023-01-17T14:21:35.536Z,1.97
2023-01-17T14:24:18.272Z,2.43
2023-01-17T14:26:50.887Z,3.23
2023-01-17T14:29:58.611Z,4.18
2023-01-17T14:32:31.506Z,3.61
2023-01-17T14:34:59.583Z,4.21
2023-01-17T14:37:33.589Z,3.73
2023-01-17T14:40:02.029Z,2.52
2023-01-17T14:42:31.623Z,2.40
2023-01-17T14:45:09.032Z,2.01
2023-01-17T14:47:39.523Z,2.70
2023-01-17T14:50:40.233Z,2.44
2023-01-17T14:53:43.550Z,1.50
2023-01-17T14:56:19.518Z,1.84
2023-01-17T14:58:47.217Z,1.82
2023-01-17T15:01:19.995Z,1.73
2023-01-17T15:03:55.015Z,2.38
2023-01-17T15:06:39.229Z,2.86
2023-01-17T15:09:19.512Z,2.26
2023-01-17T15:11:50.011Z,1.82
2023-01-17T15:14:24.169Z,1.94
2023-01-17T15:16:52.102Z,1.22
2023-01-17T15:19:21.755Z,1.32
2023-01-17T15:21:53.342Z,1.52
2023-01-17T15:24:34.319Z,1.21
2023-01-17T15:27:04.275Z,1.32
2023-01-17T15:29:34.527Z,1.13
2023-01-17T15:32:05.996Z,0.84
2023-01-17T15:34:37.440Z,0.74
2023-01-17T15:37:24.389Z,0.79
2023-01-17T15:39:52.179Z,1.11
2023-01-17T15:42:26.940Z,2.59
2023-01-17T15:44:57.958Z,3.28
2023-01-17T15:47:33.958Z,3.59
2023-01-17T15:50:25.593Z,4.22
2023-01-17T15:52:55.522Z,4.20
2023-01-17T15:55:38.523Z,4.17
2023-01-17T15:58:25.824Z,4.10
2023-01-17T16:00:54.196Z,4.32
2023-01-17T16:03:26.877Z,4.31
2023-01-17T16:05:57.815Z,4.49
2023-01-17T16:08:39.357Z,4.28
2023-01-17T16:11:11.290Z,4.03
2023-01-17T16:13:42.037Z,4.33
2023-01-17T16:16:21.280Z,4.04
2023-01-17T16:18:55.369Z,4.26
2023-01-17T16:21:26.786Z,3.99
2023-01-17T16:23:54.963Z,3.93
2023-01-17T16:26:23.550Z,4.03
2023-01-17T16:28:51.848Z,4.02
2023-01-17T16:31:19.786Z,3.99
2023-01-17T16:33:50.506Z,3.78
2023-01-17T16:36:20.753Z,3.77
2023-01-17T16:38:51.459Z,3.77
2023-01-17T16:41:20.678Z,3.76
2023-01-17T16:44:01.798Z,3.64
2023-01-17T16:46:30.113Z,3.52
2023-01-17T16:49:00.710Z,3.46
2023-01-17T16:51:28.407Z,3.56
2023-01-17T16:53:56.054Z,3.71
2023-01-17T16:56:23.934Z,3.67
2023-01-17T16:58:53.145Z,3.67
2023-01-17T17:01:22.545Z,3.73
2023-01-17T17:03:50.642Z,3.78
2023-01-17T17:06:18.380Z,3.70
2023-01-17T17:08:46.103Z,3.74
2023-01-17T17:11:19.996Z,3.67
2023-01-17T17:13:50.139Z,3.56
2023-01-17T17:16:30.350Z,3.31
2023-01-17T17:19:01.997Z,3.18
2023-01-17T17:21:31.736Z,3.08
2023-01-17T17:24:00.947Z,3.13
2023-01-17T17:26:35.894Z,3.09
2023-01-17T17:29:07.228Z,2.83
2023-01-17T17:31:42.102Z,2.64
2023-01-17T17:34:13.117Z,2.49
2023-01-17T17:36:40.840Z,1.95
2023-01-17T17:39:14.702Z,2.05
2023-01-17T17:41:45.337Z,2.06
2023-01-17T17:44:14.307Z,2.16
2023-01-17T17:46:42.950Z,2.31
2023-01-17T17:49:10.673Z,2.06
2023-01-17T17:51:39.917Z,2.03
2023-01-17T17:54:11.758Z,1.73
2023-01-17T17:56:40.555Z,1.78
2023-01-17T17:59:09.694Z,1.82
2023-01-17T18:01:40.995Z,2.00
2023-01-17T18:04:09.277Z,1.90
2023-01-17T18:06:38.564Z,2.07
2023-01-17T18:09:09.651Z,1.98
2023-01-17T18:11:40.459Z,2.04
2023-01-17T18:14:14.237Z,1.87
2023-01-17T18:16:44.808Z,1.67
2023-01-17T18:19:20.900Z,2.15
2023-01-17T18:21:50.328Z,2.32
2023-01-17T18:24:22.350Z,2.17
2023-01-17T18:26:57.217Z,2.36
2023-01-17T18:29:27.397Z,2.30
2023-01-17T18:31:55.752Z,2.19
2023-01-17T18:34:29.292Z,2.31
2023-01-17T18:36:57.875Z,2.32
2023-01-17T18:39:29.761Z,2.31
2023-01-17T18:41:58.347Z,2.27
2023-01-17T18:44:27.325Z,2.25
2023-01-17T18:46:55.564Z,1.63
2023-01-17T18:49:23.266Z,0.45
2023-01-17T18:51:51.613Z,-0.52
2023-01-17T18:54:20.402Z,-0.48
2023-01-17T18:56:48.137Z,0.78
2023-01-17T18:59:18.182Z,1.53
2023-01-17T19:01:46.490Z,1.81
2023-01-17T19:04:16.289Z,1.70
2023-01-17T19:06:47.537Z,1.74
2023-01-17T19:09:17.000Z,1.89
2023-01-17T19:11:46.244Z,2.02
2023-01-17T19:14:15.870Z,1.05
2023-01-17T19:16:43.617Z,0.36
2023-01-17T19:19:15.706Z,0.52
2023-01-17T19:21:43.970Z,1.52
2023-01-17T19:24:13.043Z,1.77
2023-01-17T19:26:42.730Z,1.67
2023-01-17T19:29:10.432Z,1.27
2023-01-17T19:31:42.389Z,1.01
2023-01-17T19:34:13.718Z,0.49
2023-01-17T19:36:41.693Z,0.95
2023-01-17T19:39:10.987Z,1.56
2023-01-17T19:41:44.788Z,1.65
2023-01-17T19:44:14.629Z,1.71
2023-01-17T19:46:43.771Z,1.64
2023-01-17T19:49:11.570Z,1.71
2023-01-17T19:51:39.725Z,1.55
2023-01-17T19:54:08.277Z,1.43
2023-01-17T19:56:36.099Z,1.00
2023-01-17T19:59:03.777Z,1.37
2023-01-17T20:01:33.450Z,1.49
2023-01-17T20:04:02.807Z,1.54
2023-01-17T20:06:34.240Z,1.10
2023-01-17T20:09:02.510Z,1.43
2023-01-17T20:11:30.199Z,1.35
2023-01-17T20:13:59.068Z,1.30
2023-01-17T20:16:36.529Z,1.51
2023-01-17T20:19:04.592Z,1.48
2023-01-17T20:21:32.782Z,1.54
2023-01-17T20:24:03.200Z,1.17
2023-01-17T20:26:36.876Z,0.35
2023-01-17T20:29:10.375Z,0.54
2023-01-17T20:31:40.645Z,1.03
2023-01-17T20:34:11.425Z,0.97
2023-01-17T20:36:41.596Z,0.17
2023-01-17T20:39:13.381Z,0.65
2023-01-17T20:41:43.421Z,1.09
2023-01-17T20:44:15.211Z,1.24
2023-01-17T20:46:44.189Z,1.36
2023-01-17T20:49:19.315Z,1.42
2023-01-17T20:51:47.578Z,1.43
2023-01-17T20:54:18.848Z,1.41
2023-01-17T20:56:47.732Z,1.29
2023-01-17T20:59:18.876Z,1.21
2023-01-17T21:01:47.238Z,1.12
2023-01-17T21:04:15.105Z,1.11
2023-01-17T21:06:44.159Z,1.11
2023-01-17T21:09:15.021Z,1.12
2023-01-17T21:11:43.360Z,1.01
2023-01-17T21:14:11.120Z,1.14
2023-01-17T21:16:39.633Z,1.02
2023-01-17T21:19:11.701Z,0.95
2023-01-17T21:21:39.360Z,0.87
2023-01-17T21:24:07.116Z,0.82
2023-01-17T21:26:34.860Z,0.65
2023-01-17T21:29:03.616Z,0.65
2023-01-17T21:31:34.707Z,0.66
2023-01-17T21:34:08.711Z,0.53
2023-01-17T21:36:40.238Z,0.43
2023-01-17T21:39:18.395Z,0.50
2023-01-17T21:41:49.562Z,0.40
2023-01-17T21:44:21.577Z,0.35
2023-01-17T21:46:54.296Z,0.21
2023-01-17T21:49:23.760Z,0.49
2023-01-17T21:51:53.979Z,0.47
2023-01-17T21:54:45.771Z,0.37
2023-01-17T21:57:36.891Z,0.49
2023-01-17T22:00:09.040Z,0.50
2023-01-17T22:02:40.806Z,0.45
2023-01-17T22:05:10.303Z,0.53
2023-01-17T22:07:39.019Z,0.61
2023-01-17T22:10:07.539Z,0.66
2023-01-17T22:12:35.295Z,0.65
2023-01-17T22:15:04.061Z,0.55
2023-01-17T22:17:31.879Z,0.44
2023-01-17T22:19:59.403Z,0.19
2023-01-17T22:22:26.987Z,0.45
2023-01-17T22:24:54.545Z,0.49
2023-01-17T22:27:22.205Z,0.46
2023-01-17T22:29:49.788Z,-0.26
2023-01-17T22:32:17.388Z,-0.99
2023-01-17T22:34:44.968Z,-1.30
2023-01-17T22:37:12.648Z,-1.89
2023-01-17T22:39:40.238Z,-2.40
2023-01-17T22:42:08.351Z,-1.43
2023-01-17T22:44:35.999Z,-0.53
2023-01-17T22:47:03.812Z,0.04
2023-01-17T22:49:31.810Z,0.21
2023-01-17T22:51:59.570Z,0.33
2023-01-17T22:54:27.116Z,0.33
2023-01-17T22:56:54.733Z,-0.14
2023-01-17T22:59:22.476Z,0.22
2023-01-17T23:01:50.049Z,0.40
2023-01-17T23:04:17.652Z,0.37
2023-01-17T23:06:45.316Z,0.20
2023-01-17T23:09:17.116Z,0.31
2023-01-17T23:11:50.606Z,0.26
2023-01-17T23:14:25.984Z,0.32
2023-01-17T23:17:14.953Z,0.34
2023-01-17T23:19:52.418Z,0.34
2023-01-17T23:22:26.990Z,0.41
2023-01-17T23:25:00.630Z,0.41
2023-01-17T23:27:48.181Z,0.34
2023-01-17T23:30:34.572Z,-0.08
2023-01-17T23:33:08.510Z,-0.48
2023-01-17T23:35:41.653Z,-0.59
2023-01-17T23:38:28.704Z,-0.71
2023-01-17T23:41:25.472Z,-0.82
2023-01-17T23:43:58.254Z,-1.73
2023-01-17T23:46:27.260Z,-2.41
2023-01-17T23:48:55.213Z,-2.88
2023-01-17T23:51:23.075Z,-2.43
2023-01-17T23:53:55.122Z,-1.28
2023-01-17T23:56:24.685Z,-1.00
2023-01-17T23:58:52.296Z,-0.46
